ADDS METAR Data INFO
IDs: Format: Raw Decoded Include TAF

Data at: 1050 UTC 19 Oct 2017

KFOK 190953Z AUTO 00000KT 10SM OVC003 04/03 A3028 RMK AO2 SLP254 T00440033
KFOK 190853Z AUTO 00000KT 10SM OVC003 04/03 A3028 RMK AO2 SLP254 T00390033 55003
KFOK 190753Z AUTO 00000KT 10SM OVC002 04/04 A3027 RMK AO2 SLP252 T00390039
KFOK 190749Z AUTO 00000KT 10SM OVC002 04/04 A3027 RMK AO2
KFOK 190724Z AUTO 00000KT 3SM BR OVC001 05/04 A3028 RMK AO2 T00500044
KFOK 190721Z AUTO 00000KT 1 1/4SM BR OVC001 05/04 A3028 RMK AO2 T00500044
KFOK 190653Z AUTO 00000KT 1/4SM FG VV001 05/04 A3029 RMK AO2 SLP255 T00500039
KFOK 190642Z AUTO 00000KT 1/4SM FG VV001 05/04 A3029 RMK AO2 T00500039
KFOK 190640Z AUTO 00000KT 1/2SM FG VV002 05/04 A3029 RMK AO2 T00500039
KFOK 190634Z AUTO 00000KT 1/4SM FG VV001 05/04 A3029 RMK AO2 T00500039
KFOK 190624Z AUTO 00000KT 1/2SM FG VV002 05/04 A3029 RMK AO2 T00500039
KFOK 190617Z AUTO 00000KT 1/4SM FG VV002 05/04 A3029 RMK AO2 T00500039
KFOK 190553Z AUTO 00000KT 1/4SM FG VV001 06/04 A3029 RMK AO2 SLP256 T00560044 10089 20050 56007
KFOK 190456Z AUTO 00000KT 1/4SM FG VV001 05/04 A3029 RMK AO2 T00500039
KFOK 190453Z AUTO 00000KT 1SM BR VV001 05/04 A3029 RMK AO2 SLP257 T00500039 402060000
KFOK 190438Z AUTO 00000KT 1SM BR VV002 06/04 A3029 RMK AO2 T00560044
KFOK 190353Z AUTO 00000KT 1/4SM FG VV004 06/04 A3030 RMK AO2 SLP259 T00560044
KFOK 190349Z AUTO 00000KT 1SM BR VV004 06/04 A3030 RMK AO2
KFOK 190329Z AUTO 00000KT 10SM FEW005 07/04 A3030 RMK AO2 T00670044
KFOK 190253Z 00000KT 10SM CLR 06/04 A3031 RMK AO2 SLP264 T00610044 51004
KFOK 190153Z 00000KT 10SM CLR 08/06 A3031 RMK AO2 SLP263 T00780061
KFOK 190053Z 25003KT 10SM CLR 09/07 A3031 RMK AO2 SLP263 T00890067
KFOK 182353Z 00000KT 10SM CLR 10/07 A3030 RMK AO2 SLP261 T01000072 10200 20094 51009
KFOK 182253Z 22003KT 10SM CLR 15/10 A3029 RMK AO2 SLP259 T01500100
KFOK 182153Z 21005KT 10SM CLR 16/10 A3028 RMK AO2 SLP255 T01610100
KFOK 182053Z 22008KT 10SM CLR 18/09 A3027 RMK AO2 SLP251 T01780094 56005
KFOK 181953Z 22006KT 10SM CLR 18/09 A3028 RMK AO2 SLP253 T01830094
KFOK 181853Z 18005KT 10SM CLR 19/09 A3028 RMK AO2 SLP255 T01940089
KFOK 181753Z VRB05KT 10SM CLR 20/09 A3029 RMK AO2 SLP257 T02000089 10206 20056 58011
KFOK 181653Z 14006KT 10SM CLR 19/09 A3031 RMK AO2 SLP264 T01940089
KFOK 181553Z 00000KT 10SM CLR 19/08 A3032 RMK AO2 SLP268 T01890078
KFOK 181453Z VRB04KT 10SM CLR 17/07 A3032 RMK AO2 SLP269 T01720067 50003
KFOK 181353Z 28006KT 10SM CLR 15/06 A3033 RMK AO2 SLP270 T01500061
KFOK 181253Z 26008KT 10SM CLR 12/05 A3033 RMK AO2 SLP270 T01170050 $
KFOK 181153Z 00000KT 10SM CLR 05/03 A3032 RMK AO2 SLP266 T00500033 10078 20000 51009 $
KFOK 181053Z AUTO 00000KT 10SM CLR 06/02 A3031 RMK AO2 SLP264 T00560022 $
KFOK 180953Z AUTO 28004KT 10SM CLR 04/02 A3030 RMK AO2 SLP262 T00440017 $
KFOK 180853Z AUTO 26006KT 10SM CLR 07/04 A3029 RMK AO2 SLP257 T00720039 55001 $
KFOK 180753Z AUTO 00000KT 10SM CLR 02/01 A3028 RMK AO2 SLP254 T00220011 $
KFOK 180653Z AUTO 00000KT 10SM CLR 00/M01 A3029 RMK AO2 SLP257 T00001011 $
KFOK 180553Z AUTO 00000KT 10SM CLR 01/M01 A3029 RMK AO2 SLP258 T00111006 10033 20011 56007 $
KFOK 180453Z AUTO 00000KT 10SM CLR 01/M01 A3030 RMK AO2 SLP260 T00111006 401390011 $
KFOK 180253Z 00000KT 10SM CLR 01/M01 A3031 RMK AO2 SLP266 T00111011 53004
KFOK 180153Z 29003KT 10SM CLR 02/M01 A3031 RMK AO2 SLP264 T00221006
KFOK 180053Z 00000KT 10SM CLR 02/M01 A3030 RMK AO2 SLP261 T00221006
KFOK 172353Z 00000KT 10SM CLR 03/00 A3030 RMK AO2 SLP261 T00330000 10139 20033 53009
KFOK 172253Z 00000KT 10SM CLR 05/01 A3029 RMK AO2 SLP258 T00500011